Time;durP1;ratioP1;P1;durP2;ratioP2;P2;SDS_P1;SDS_P2;PMS_P1;PMS_P2;Temp;Humidity;BMP_temperature;BMP_pressure;BME280_temperature;BME280_humidity;BME280_pressure;Samples;Min_cycle;Max_cycle;Signal;HPM_P1;HPM_P2
2023/12/24 00:02:33;;;;;;;;;;;8.90;87.20;;;;;;5099917;28;19932;-58
2023/12/24 00:05:07;;;;;;;;;;;8.90;87.20;;;;;;5085512;28;19923;-61
2023/12/24 00:07:41;;;;;;;;;;;8.90;87.20;;;;;;5095108;28;19927;-61
2023/12/24 00:10:14;;;;;;;;;;;8.90;87.40;;;;;;5104813;28;19935;-61
2023/12/24 00:12:47;;;;;;;;;;;8.90;87.40;;;;;;5100619;28;19932;-60
2023/12/24 00:15:21;;;;;;;;;;;8.90;87.40;;;;;;5096296;28;19928;-59
2023/12/24 00:17:55;;;;;;;;;;;8.90;87.40;;;;;;5100900;28;19932;-60
2023/12/24 00:20:29;;;;;;;;;;;8.90;87.60;;;;;;5100346;28;19936;-60
2023/12/24 00:23:06;;;;;;;;;;;8.90;87.50;;;;;;5100626;28;20004;-60
2023/12/24 00:25:40;;;;;;;;;;;8.90;87.70;;;;;;5103470;28;19939;-62
2023/12/24 00:28:13;;;;;;;;;;;8.90;87.70;;;;;;5074285;28;19931;-60
2023/12/24 00:30:46;;;;;;;;;;;8.90;87.70;;;;;;5079929;28;19975;-59
2023/12/24 00:33:21;;;;;;;;;;;8.90;87.70;;;;;;5097036;28;19963;-61
2023/12/24 00:35:55;;;;;;;;;;;8.90;87.70;;;;;;5079189;28;19924;-61
2023/12/24 00:38:35;;;;;;;;;;;9.00;87.80;;;;;;5080150;28;19924;-60
2023/12/24 00:41:08;;;;;;;;;;;9.00;87.80;;;;;;5084186;28;19993;-62
2023/12/24 00:43:41;;;;;;;;;;;9.00;87.80;;;;;;5082920;28;20551;-60
2023/12/24 00:46:14;;;;;;;;;;;9.00;87.80;;;;;;5100484;27;20302;-61
2023/12/24 00:48:50;;;;;;;;;;;9.00;87.80;;;;;;5106962;28;19984;-59
2023/12/24 00:51:24;;;;;;;;;;;9.00;87.90;;;;;;5094388;28;19931;-61
2023/12/24 00:53:57;;;;;;;;;;;9.00;87.90;;;;;;5108649;27;20018;-60
2023/12/24 00:56:30;;;;;;;;;;;9.00;87.90;;;;;;5081976;28;19928;-61
2023/12/24 00:59:03;;;;;;;;;;;9.00;87.90;;;;;;5074620;28;19927;-61
2023/12/24 01:01:36;;;;;;;;;;;9.00;87.80;;;;;;5093928;28;20306;-61
2023/12/24 01:04:10;;;;;;;;;;;9.00;87.90;;;;;;5100929;28;20003;-61
2023/12/24 01:06:44;;;;;;;;;;;9.00;87.80;;;;;;5101486;28;19959;-60
2023/12/24 01:09:17;;;;;;;;;;;9.00;87.70;;;;;;5091583;28;20256;-61
2023/12/24 01:11:44;;;;;;;;;;;9.00;87.70;;;;;;5084495;28;19947;-58
2023/12/24 01:14:17;;;;;;;;;;;9.00;87.80;;;;;;5095421;28;19930;-59
2023/12/24 01:16:50;;;;;;;;;;;9.00;87.70;;;;;;5101635;28;19924;-58
2023/12/24 01:19:24;;;;;;;;;;;9.00;87.60;;;;;;5093541;27;20397;-59
2023/12/24 01:21:58;;;;;;;;;;;9.00;87.70;;;;;;5105651;28;19928;-58
2023/12/24 01:24:31;;;;;;;;;;;9.00;87.60;;;;;;5087548;28;20016;-62
2023/12/24 01:27:04;;;;;;;;;;;9.00;87.50;;;;;;5103942;28;20430;-59
2023/12/24 01:29:44;;;;;;;;;;;9.00;87.60;;;;;;5107534;28;19928;-60
2023/12/24 01:32:17;;;;;;;;;;;9.10;87.60;;;;;;5106581;28;19931;-59
2023/12/24 01:34:51;;;;;;;;;;;9.10;87.30;;;;;;5079428;28;19924;-60
2023/12/24 01:37:18;;;;;;;;;;;9.00;87.20;;;;;;5094897;28;19928;-60
2023/12/24 01:39:51;;;;;;;;;;;9.10;87.20;;;;;;5104573;27;19927;-60
2023/12/24 01:42:24;;;;;;;;;;;9.10;87.10;;;;;;5091950;28;19928;-60
2023/12/24 01:44:57;;;;;;;;;;;9.10;87.10;;;;;;5107577;28;19950;-58
2023/12/24 01:47:30;;;;;;;;;;;9.10;87.10;;;;;;5081686;28;19973;-59
2023/12/24 01:50:05;;;;;;;;;;;9.10;87.10;;;;;;5077917;28;19967;-59
2023/12/24 01:52:38;;;;;;;;;;;9.10;87.00;;;;;;5094548;28;19924;-60
2023/12/24 01:55:11;;;;;;;;;;;9.10;87.00;;;;;;5099793;27;19931;-58
2023/12/24 01:57:44;;;;;;;;;;;9.10;87.00;;;;;;5102803;28;19924;-57
2023/12/24 02:00:19;;;;;;;;;;;9.10;87.00;;;;;;5082269;28;20441;-59
2023/12/24 02:02:52;;;;;;;;;;;9.10;86.90;;;;;;5087883;28;19932;-59
2023/12/24 02:05:27;;;;;;;;;;;9.10;86.80;;;;;;5103924;28;20512;-59
2023/12/24 02:08:01;;;;;;;;;;;9.10;86.80;;;;;;5083654;28;19928;-59
2023/12/24 02:10:33;;;;;;;;;;;9.10;86.70;;;;;;5090702;28;20398;-58
2023/12/24 02:13:07;;;;;;;;;;;9.10;86.70;;;;;;5087680;28;19993;-60
2023/12/24 02:15:40;;;;;;;;;;;9.10;86.80;;;;;;5078415;28;19924;-60
2023/12/24 02:18:13;;;;;;;;;;;9.30;87.20;;;;;;5068710;28;20018;-59
2023/12/24 02:20:47;;;;;;;;;;;9.40;87.20;;;;;;5069436;28;19932;-59
2023/12/24 02:23:22;;;;;;;;;;;9.40;86.80;;;;;;5083662;28;19928;-73
2023/12/24 02:25:58;;;;;;;;;;;9.30;86.80;;;;;;5075747;28;19928;-73
2023/12/24 02:28:33;;;;;;;;;;;9.40;87.20;;;;;;5078123;28;19935;-72
2023/12/24 02:31:09;;;;;;;;;;;9.40;86.90;;;;;;5082314;28;19933;-72
2023/12/24 02:33:42;;;;;;;;;;;9.40;86.70;;;;;;5105266;28;19931;-71
2023/12/24 02:36:16;;;;;;;;;;;9.40;86.90;;;;;;5095056;28;19943;-72
2023/12/24 02:38:50;;;;;;;;;;;9.40;86.90;;;;;;5069185;28;19929;-72
2023/12/24 02:41:24;;;;;;;;;;;9.40;86.80;;;;;;5098172;28;19932;-72
2023/12/24 02:43:57;;;;;;;;;;;9.40;87.30;;;;;;5096599;28;19943;-73
2023/12/24 02:46:30;;;;;;;;;;;9.40;87.20;;;;;;5107723;28;19931;-74
2023/12/24 02:49:03;;;;;;;;;;;9.40;86.80;;;;;;5081966;28;19924;-73
2023/12/24 02:51:36;;;;;;;;;;;9.40;86.70;;;;;;5086412;28;20385;-72
2023/12/24 02:54:11;;;;;;;;;;;9.50;86.70;;;;;;5105426;28;19987;-73
2023/12/24 02:56:44;;;;;;;;;;;9.40;86.60;;;;;;5091440;28;19969;-73
2023/12/24 02:59:17;;;;;;;;;;;9.50;86.60;;;;;;5090683;28;20034;-73
2023/12/24 03:01:50;;;;;;;;;;;9.50;86.40;;;;;;5081117;28;19924;-73
2023/12/24 03:04:23;;;;;;;;;;;9.50;86.30;;;;;;5090164;28;19979;-75
2023/12/24 03:06:56;;;;;;;;;;;9.50;86.40;;;;;;5088407;28;19932;-74
2023/12/24 03:09:31;;;;;;;;;;;9.50;86.30;;;;;;5084581;28;19971;-72
2023/12/24 03:12:04;;;;;;;;;;;9.50;86.50;;;;;;5082234;28;19951;-70
2023/12/24 03:14:37;;;;;;;;;;;9.50;86.50;;;;;;5108522;28;19950;-71
2023/12/24 03:17:10;;;;;;;;;;;9.50;86.60;;;;;;5089224;28;19927;-71
2023/12/24 03:19:43;;;;;;;;;;;9.60;86.70;;;;;;5090916;28;19939;-72
2023/12/24 03:22:23;;;;;;;;;;;9.60;86.80;;;;;;5089748;28;19957;-70
2023/12/24 03:24:58;;;;;;;;;;;9.60;86.60;;;;;;5107862;28;19928;-71
2023/12/24 03:27:24;;;;;;;;;;;9.60;86.60;;;;;;5087871;28;19923;-72
2023/12/24 03:29:57;;;;;;;;;;;9.60;86.70;;;;;;5114369;28;19924;-72
2023/12/24 03:32:30;;;;;;;;;;;9.60;86.40;;;;;;5110105;28;20004;-60
2023/12/24 03:35:04;;;;;;;;;;;9.70;86.50;;;;;;5107299;28;19924;-62
2023/12/24 03:37:37;;;;;;;;;;;9.70;86.00;;;;;;5100126;28;20535;-62
2023/12/24 03:40:12;;;;;;;;;;;9.70;86.10;;;;;;5093879;28;20371;-63
2023/12/24 03:42:45;;;;;;;;;;;9.60;85.80;;;;;;5083439;28;19924;-62
2023/12/24 03:45:12;;;;;;;;;;;9.60;86.10;;;;;;5080115;28;19924;-63
2023/12/24 03:47:45;;;;;;;;;;;9.60;86.10;;;;;;5081160;28;19924;-62
2023/12/24 03:50:18;;;;;;;;;;;9.50;86.10;;;;;;5087328;28;19966;-63
2023/12/24 03:52:51;;;;;;;;;;;9.40;86.30;;;;;;5085433;28;19932;-62
2023/12/24 03:55:25;;;;;;;;;;;9.40;86.40;;;;;;5086521;28;19924;-62
2023/12/24 03:58:01;;;;;;;;;;;9.40;86.40;;;;;;5083240;28;20383;-63
2023/12/24 04:00:34;;;;;;;;;;;9.40;86.40;;;;;;5082037;28;20428;-63
2023/12/24 04:03:07;;;;;;;;;;;9.40;86.30;;;;;;5103881;27;19978;-62
2023/12/24 04:05:40;;;;;;;;;;;9.40;86.30;;;;;;5109269;27;19928;-60
2023/12/24 04:08:14;;;;;;;;;;;9.40;86.30;;;;;;5107026;27;19928;-61
2023/12/24 04:10:49;;;;;;;;;;;9.30;86.30;;;;;;5110603;27;19923;-62
2023/12/24 04:13:23;;;;;;;;;;;9.30;86.30;;;;;;5112492;27;19924;-63
2023/12/24 04:15:56;;;;;;;;;;;9.30;86.10;;;;;;5072260;28;19924;-61
2023/12/24 04:18:23;;;;;;;;;;;9.40;86.00;;;;;;5110574;28;20377;-61
2023/12/24 04:20:56;;;;;;;;;;;9.30;85.80;;;;;;5113224;28;19924;-62
2023/12/24 04:23:29;;;;;;;;;;;9.40;85.80;;;;;;5107663;28;19923;-62
2023/12/24 04:26:04;;;;;;;;;;;9.30;85.60;;;;;;5088719;28;19924;-62
2023/12/24 04:28:38;;;;;;;;;;;9.40;85.70;;;;;;5112751;28;19927;-61
2023/12/24 04:31:13;;;;;;;;;;;9.40;85.60;;;;;;5085544;28;19931;-62
2023/12/24 04:33:46;;;;;;;;;;;9.30;85.60;;;;;;5087002;28;19950;-62
2023/12/24 04:36:19;;;;;;;;;;;9.30;85.40;;;;;;5102546;28;20023;-63
2023/12/24 04:38:52;;;;;;;;;;;9.30;85.40;;;;;;5091217;28;20022;-62
2023/12/24 04:41:28;;;;;;;;;;;9.30;85.30;;;;;;5092222;28;19934;-71
2023/12/24 04:44:01;;;;;;;;;;;9.30;85.50;;;;;;5078882;28;19928;-62
2023/12/24 04:46:40;;;;;;;;;;;9.40;85.40;;;;;;5113446;28;19927;-62
2023/12/24 04:49:13;;;;;;;;;;;9.30;85.60;;;;;;5110596;27;20895;-62
2023/12/24 04:51:47;;;;;;;;;;;9.30;85.70;;;;;;5091833;28;19935;-62
2023/12/24 04:54:20;;;;;;;;;;;9.30;85.90;;;;;;5074054;28;20001;-63
2023/12/24 04:56:55;;;;;;;;;;;9.20;86.10;;;;;;5090656;28;20011;-62
2023/12/24 04:59:28;;;;;;;;;;;9.20;86.50;;;;;;5084010;28;19939;-62
2023/12/24 05:02:01;;;;;;;;;;;9.20;86.80;;;;;;5090880;28;19932;-62
2023/12/24 05:04:35;;;;;;;;;;;9.20;87.10;;;;;;5072766;28;20845;-63
2023/12/24 05:07:09;;;;;;;;;;;9.20;87.40;;;;;;5072800;28;19966;-64
2023/12/24 05:09:42;;;;;;;;;;;9.20;87.80;;;;;;5094202;28;19924;-61
2023/12/24 05:12:18;;;;;;;;;;;9.20;88.00;;;;;;5083939;28;19995;-62
2023/12/24 05:14:51;;;;;;;;;;;9.10;88.10;;;;;;5090070;28;19969;-62
2023/12/24 05:17:24;;;;;;;;;;;9.10;88.40;;;;;;5090689;27;19925;-62
2023/12/24 05:19:57;;;;;;;;;;;9.00;88.50;;;;;;5088367;28;20351;-62
2023/12/24 05:22:30;;;;;;;;;;;9.10;88.60;;;;;;5087104;28;20394;-62
2023/12/24 05:25:04;;;;;;;;;;;9.10;88.70;;;;;;5082607;28;20017;-63
2023/12/24 05:27:39;;;;;;;;;;;9.00;88.80;;;;;;5104495;27;20008;-61
2023/12/24 05:30:12;;;;;;;;;;;9.00;88.80;;;;;;5108610;28;19930;-62
2023/12/24 05:32:45;;;;;;;;;;;9.00;88.90;;;;;;5109715;28;19924;-62
2023/12/24 05:35:18;;;;;;;;;;;9.00;89.00;;;;;;5109069;28;19924;-62
2023/12/24 05:37:51;;;;;;;;;;;9.00;89.00;;;;;;5106261;28;19931;-63
2023/12/24 05:40:24;;;;;;;;;;;9.00;89.00;;;;;;5107294;28;20445;-62
2023/12/24 05:42:59;;;;;;;;;;;9.00;89.10;;;;;;5104521;27;20007;-61
2023/12/24 05:45:33;;;;;;;;;;;9.00;89.30;;;;;;5103749;28;20309;-63
2023/12/24 05:48:06;;;;;;;;;;;9.00;89.30;;;;;;5108862;28;19924;-61
2023/12/24 05:50:40;;;;;;;;;;;9.00;89.30;;;;;;5107663;28;20022;-62
2023/12/24 05:53:13;;;;;;;;;;;9.00;89.50;;;;;;5110488;28;20010;-61
2023/12/24 05:55:46;;;;;;;;;;;8.90;89.50;;;;;;5094474;27;19935;-60
2023/12/24 05:58:21;;;;;;;;;;;8.90;89.70;;;;;;5107695;28;20383;-63
2023/12/24 06:00:54;;;;;;;;;;;9.00;89.70;;;;;;5111101;28;19976;-62
2023/12/24 06:03:27;;;;;;;;;;;8.90;89.60;;;;;;5110393;27;19969;-61
2023/12/24 06:06:00;;;;;;;;;;;8.90;89.70;;;;;;5108455;28;19924;-66
2023/12/24 06:08:33;;;;;;;;;;;8.90;89.70;;;;;;5106794;28;19967;-63
2023/12/24 06:11:06;;;;;;;;;;;8.90;89.80;;;;;;5099635;27;19959;-62
2023/12/24 06:13:41;;;;;;;;;;;8.90;89.70;;;;;;5101238;27;19967;-63
2023/12/24 06:16:14;;;;;;;;;;;8.90;89.80;;;;;;5108228;28;20587;-61
2023/12/24 06:18:47;;;;;;;;;;;8.90;89.90;;;;;;5109364;28;20332;-61
2023/12/24 06:21:20;;;;;;;;;;;8.90;89.90;;;;;;5106207;27;19934;-61
2023/12/24 06:23:53;;;;;;;;;;;8.90;90.00;;;;;;5106958;28;19934;-60
2023/12/24 06:26:26;;;;;;;;;;;8.90;90.10;;;;;;5106041;28;19927;-61
2023/12/24 06:29:01;;;;;;;;;;;8.90;90.10;;;;;;5109474;28;20023;-61
2023/12/24 06:31:34;;;;;;;;;;;8.90;90.10;;;;;;5107211;28;19946;-63
2023/12/24 06:34:08;;;;;;;;;;;8.90;90.10;;;;;;5107221;28;19924;-62
2023/12/24 06:36:34;;;;;;;;;;;8.90;90.20;;;;;;5091292;28;20282;-61
2023/12/24 06:39:07;;;;;;;;;;;8.90;90.30;;;;;;5090149;28;19992;-61
2023/12/24 06:41:34;;;;;;;;;;;8.90;90.30;;;;;;5109835;28;19928;-62
2023/12/24 06:44:09;;;;;;;;;;;8.90;90.30;;;;;;5106505;28;19969;-63
2023/12/24 06:46:42;;;;;;;;;;;8.90;90.30;;;;;;5089257;28;19924;-62
2023/12/24 06:49:15;;;;;;;;;;;8.90;90.40;;;;;;5090848;27;19925;-61
2023/12/24 06:51:48;;;;;;;;;;;8.90;90.40;;;;;;5107104;28;19939;-62
2023/12/24 06:54:21;;;;;;;;;;;8.90;90.50;;;;;;5107735;28;19931;-61
2023/12/24 06:56:54;;;;;;;;;;;8.90;90.60;;;;;;5108653;28;19924;-63
2023/12/24 06:59:29;;;;;;;;;;;8.90;90.60;;;;;;5108233;27;19927;-61
2023/12/24 07:02:02;;;;;;;;;;;8.90;90.70;;;;;;5093639;28;19927;-75
2023/12/24 07:04:35;;;;;;;;;;;8.90;90.80;;;;;;5090346;28;20311;-72
2023/12/24 07:07:02;;;;;;;;;;;8.80;90.80;;;;;;5085440;28;19939;-73
2023/12/24 07:09:35;;;;;;;;;;;8.90;90.90;;;;;;5106917;28;19971;-72
2023/12/24 07:12:08;;;;;;;;;;;8.80;90.90;;;;;;5084491;28;19974;-69
2023/12/24 07:14:43;;;;;;;;;;;8.90;91.00;;;;;;5087910;28;19928;-72
2023/12/24 07:17:16;;;;;;;;;;;8.80;91.00;;;;;;5088052;28;19977;-73
2023/12/24 07:19:49;;;;;;;;;;;8.80;91.00;;;;;;5088774;28;20448;-71
2023/12/24 07:22:22;;;;;;;;;;;8.90;91.10;;;;;;5091347;28;19977;-76
2023/12/24 07:24:55;;;;;;;;;;;8.90;91.10;;;;;;5091278;28;20375;-71
2023/12/24 07:27:28;;;;;;;;;;;8.90;91.10;;;;;;5087612;28;20359;-71
2023/12/24 07:30:03;;;;;;;;;;;8.80;91.10;;;;;;5085221;28;19924;-73
2023/12/24 07:32:36;;;;;;;;;;;8.80;91.20;;;;;;5108412;27;20400;-72
2023/12/24 07:35:10;;;;;;;;;;;8.80;91.20;;;;;;5107782;28;20388;-71
2023/12/24 07:37:42;;;;;;;;;;;8.80;91.30;;;;;;5107009;28;20187;-74
2023/12/24 07:40:15;;;;;;;;;;;8.90;91.30;;;;;;5106641;28;19928;-73
2023/12/24 07:42:48;;;;;;;;;;;8.80;91.30;;;;;;5106525;28;19933;-70
2023/12/24 07:45:24;;;;;;;;;;;8.90;91.40;;;;;;5111036;27;19928;-73
2023/12/24 07:47:57;;;;;;;;;;;8.80;91.40;;;;;;5108560;27;20332;-74
2023/12/24 07:50:30;;;;;;;;;;;8.80;91.50;;;;;;5113189;28;19934;-74
2023/12/24 07:53:04;;;;;;;;;;;8.80;91.50;;;;;;5113750;28;19927;-71
2023/12/24 07:55:38;;;;;;;;;;;8.80;91.50;;;;;;5102557;28;20015;-74
2023/12/24 07:58:10;;;;;;;;;;;8.90;91.60;;;;;;5107875;28;19935;-72
2023/12/24 08:00:45;;;;;;;;;;;8.80;91.50;;;;;;5115059;28;19923;-72
2023/12/24 08:03:18;;;;;;;;;;;8.80;91.50;;;;;;5111347;28;20328;-75
2023/12/24 08:05:51;;;;;;;;;;;8.80;91.50;;;;;;5112089;28;19928;-72
2023/12/24 08:08:24;;;;;;;;;;;8.80;91.50;;;;;;5091061;27;20012;-73
2023/12/24 08:10:57;;;;;;;;;;;8.80;91.50;;;;;;5092250;27;19928;-74
2023/12/24 08:13:30;;;;;;;;;;;8.80;91.50;;;;;;5094437;27;19928;-66
2023/12/24 08:16:06;;;;;;;;;;;8.90;91.50;;;;;;5093284;27;20406;-65
2023/12/24 08:18:46;;;;;;;;;;;8.80;91.50;;;;;;5110256;28;19933;-67
2023/12/24 08:21:19;;;;;;;;;;;8.80;91.60;;;;;;5111639;27;19924;-65
2023/12/24 08:23:52;;;;;;;;;;;8.90;91.60;;;;;;5110112;27;19924;-66
2023/12/24 08:26:26;;;;;;;;;;;8.90;91.50;;;;;;5112794;28;20030;-65
2023/12/24 08:28:59;;;;;;;;;;;8.90;91.50;;;;;;5111545;28;19976;-64
2023/12/24 08:31:34;;;;;;;;;;;8.90;91.50;;;;;;5110208;28;19924;-64
2023/12/24 08:34:00;;;;;;;;;;;8.90;91.60;;;;;;5111930;28;19932;-66
2023/12/24 08:36:33;;;;;;;;;;;8.90;91.60;;;;;;5106233;28;19931;-66
2023/12/24 08:39:09;;;;;;;;;;;8.90;91.60;;;;;;5116896;28;19927;-65
2023/12/24 08:41:41;;;;;;;;;;;8.90;91.60;;;;;;5110982;27;19923;-66
2023/12/24 08:44:14;;;;;;;;;;;8.90;91.60;;;;;;5109412;28;19932;-64
2023/12/24 08:46:49;;;;;;;;;;;8.90;91.60;;;;;;5109077;28;19924;-64
2023/12/24 08:49:22;;;;;;;;;;;8.90;91.60;;;;;;5108671;28;19935;-66
2023/12/24 08:51:55;;;;;;;;;;;8.90;91.60;;;;;;5111219;28;19931;-66
2023/12/24 08:54:28;;;;;;;;;;;9.00;91.60;;;;;;5111528;28;19932;-65
2023/12/24 08:57:01;;;;;;;;;;;8.90;91.60;;;;;;5110497;27;19930;-64
2023/12/24 08:59:34;;;;;;;;;;;8.90;91.60;;;;;;5110684;28;20363;-66
2023/12/24 09:02:09;;;;;;;;;;;8.90;91.60;;;;;;5107500;28;20351;-65
2023/12/24 09:04:46;;;;;;;;;;;9.00;91.70;;;;;;5111988;27;19931;-65
2023/12/24 09:07:19;;;;;;;;;;;9.00;91.60;;;;;;5109345;28;19923;-66
2023/12/24 09:09:53;;;;;;;;;;;9.00;91.70;;;;;;5109967;28;20270;-63
2023/12/24 09:12:26;;;;;;;;;;;9.00;91.60;;;;;;5110822;28;20434;-66
2023/12/24 09:15:00;;;;;;;;;;;9.00;91.60;;;;;;5109707;28;19931;-65
2023/12/24 09:17:35;;;;;;;;;;;9.00;91.60;;;;;;5110495;27;20465;-64
2023/12/24 09:20:09;;;;;;;;;;;9.00;91.60;;;;;;5106561;27;19924;-67
2023/12/24 09:22:41;;;;;;;;;;;9.10;91.60;;;;;;5110539;28;19924;-61
2023/12/24 09:25:14;;;;;;;;;;;9.00;91.60;;;;;;5110875;28;19923;-62
2023/12/24 09:27:47;;;;;;;;;;;9.10;91.60;;;;;;5110153;27;19936;-63
2023/12/24 09:30:21;;;;;;;;;;;9.00;91.70;;;;;;5110212;28;19954;-62
2023/12/24 09:32:56;;;;;;;;;;;9.10;91.60;;;;;;5105628;28;20405;-62
2023/12/24 09:35:30;;;;;;;;;;;9.10;91.60;;;;;;5103586;28;19928;-62
2023/12/24 09:37:56;;;;;;;;;;;9.10;91.70;;;;;;5104495;27;19945;-62
2023/12/24 09:40:29;;;;;;;;;;;9.10;91.70;;;;;;5107801;28;19973;-62
2023/12/24 09:43:03;;;;;;;;;;;9.10;91.70;;;;;;5095168;28;19946;-63
2023/12/24 09:45:35;;;;;;;;;;;9.10;91.60;;;;;;5107525;28;19924;-62
2023/12/24 09:48:10;;;;;;;;;;;9.10;91.70;;;;;;5097121;27;20382;-62
2023/12/24 09:50:43;;;;;;;;;;;9.10;91.60;;;;;;5092112;27;20011;-61
2023/12/24 09:53:16;;;;;;;;;;;9.10;91.60;;;;;;5090602;27;20030;-63
2023/12/24 09:55:49;;;;;;;;;;;9.10;91.60;;;;;;5094919;27;19924;-62
2023/12/24 09:58:22;;;;;;;;;;;9.10;91.50;;;;;;5094588;27;19924;-62
2023/12/24 10:00:55;;;;;;;;;;;9.20;91.50;;;;;;5091688;27;19985;-63
2023/12/24 10:03:30;;;;;;;;;;;9.20;91.50;;;;;;5092037;27;20012;-62
2023/12/24 10:06:04;;;;;;;;;;;9.20;91.40;;;;;;5092936;27;19997;-61
2023/12/24 10:08:38;;;;;;;;;;;9.20;91.40;;;;;;5093964;28;20023;-63
2023/12/24 10:11:15;;;;;;;;;;;9.20;91.40;;;;;;5083312;28;19932;-63
2023/12/24 10:13:58;;;;;;;;;;;9.20;91.30;;;;;;5082269;28;19931;-63
2023/12/24 10:16:42;;;;;;;;;;;9.20;91.40;;;;;;5089897;28;19928;-62
2023/12/24 10:19:22;;;;;;;;;;;9.20;91.40;;;;;;5078933;27;20403;-62
2023/12/24 10:21:59;;;;;;;;;;;9.20;91.40;;;;;;5082544;28;19928;-60
2023/12/24 10:24:34;;;;;;;;;;;9.20;91.40;;;;;;5088744;28;19924;-62
2023/12/24 10:27:08;;;;;;;;;;;9.20;91.40;;;;;;5086382;28;19928;-62
2023/12/24 10:29:42;;;;;;;;;;;9.20;91.30;;;;;;5084372;28;19936;-62
2023/12/24 10:32:22;;;;;;;;;;;9.20;91.20;;;;;;5080838;27;19924;-62
2023/12/24 10:35:00;;;;;;;;;;;9.20;91.20;;;;;;5084052;28;19934;-60
2023/12/24 10:37:33;;;;;;;;;;;9.30;91.20;;;;;;5085485;28;20462;-61
2023/12/24 10:40:08;;;;;;;;;;;9.30;91.10;;;;;;5085098;28;20402;-60
2023/12/24 10:42:41;;;;;;;;;;;9.30;91.00;;;;;;5104664;28;19936;-60
2023/12/24 10:45:14;;;;;;;;;;;9.30;91.10;;;;;;5085912;28;19931;-60
2023/12/24 10:47:48;;;;;;;;;;;9.30;91.00;;;;;;5084516;28;20396;-58
2023/12/24 10:50:23;;;;;;;;;;;9.40;91.00;;;;;;5088426;28;20000;-60
2023/12/24 10:52:55;;;;;;;;;;;9.30;90.90;;;;;;5087551;28;19928;-61
2023/12/24 10:55:30;;;;;;;;;;;9.40;90.90;;;;;;5088659;28;20382;-61
2023/12/24 10:58:07;;;;;;;;;;;9.40;90.80;;;;;;5088415;28;19924;-62
2023/12/24 11:00:41;;;;;;;;;;;9.30;90.80;;;;;;5107327;28;19927;-61
2023/12/24 11:03:28;;;;;;;;;;;9.40;90.80;;;;;;5092663;28;19959;-62
2023/12/24 11:06:03;;;;;;;;;;;9.40;90.80;;;;;;5109372;28;19928;-61
2023/12/24 11:08:36;;;;;;;;;;;9.40;90.80;;;;;;5084044;28;19923;-59
2023/12/24 11:11:10;;;;;;;;;;;9.40;90.90;;;;;;5088888;28;19924;-61
2023/12/24 11:13:44;;;;;;;;;;;9.40;90.90;;;;;;5084771;28;19927;-60
2023/12/24 11:16:41;;;;;;;;;;;9.40;90.90;;;;;;5087894;28;20047;-60
2023/12/24 11:19:35;;;;;;;;;;;9.40;91.10;;;;;;5078437;28;19924;-60
2023/12/24 11:22:11;;;;;;;;;;;9.40;91.10;;;;;;5108405;28;19924;-61
2023/12/24 11:24:45;;;;;;;;;;;9.40;91.20;;;;;;5104814;27;19997;-61
2023/12/24 11:27:17;;;;;;;;;;;9.40;91.20;;;;;;5107104;28;20006;-61
2023/12/24 11:29:52;;;;;;;;;;;9.40;91.20;;;;;;5106626;28;19927;-60
2023/12/24 11:32:40;;;;;;;;;;;9.40;91.20;;;;;;5086868;28;25232;-60
2023/12/24 11:35:51;;;;;;;;;;;9.40;91.20;;;;;;5089673;28;19924;-62
2023/12/24 11:38:41;;;;;;;;;;;9.50;91.10;;;;;;5089962;28;19989;-62
2023/12/24 11:41:15;;;;;;;;;;;9.50;91.20;;;;;;5104831;28;19928;-62
2023/12/24 11:43:43;;;;;;;;;;;9.50;91.10;;;;;;5106906;28;19924;-60
2023/12/24 11:46:16;;;;;;;;;;;9.50;91.00;;;;;;5106997;28;19943;-59
2023/12/24 11:48:50;;;;;;;;;;;9.50;91.00;;;;;;5104007;28;19924;-58
2023/12/24 11:51:23;;;;;;;;;;;9.50;91.00;;;;;;5106311;28;19928;-58
2023/12/24 11:54:03;;;;;;;;;;;9.50;91.00;;;;;;5108134;28;19927;-59
2023/12/24 11:56:37;;;;;;;;;;;9.50;91.00;;;;;;5106534;28;19952;-59
2023/12/24 11:59:11;;;;;;;;;;;9.50;90.90;;;;;;5108096;28;20018;-59
2023/12/24 12:01:37;;;;;;;;;;;9.50;90.90;;;;;;5108236;28;19923;-59
2023/12/24 12:04:10;;;;;;;;;;;9.60;90.90;;;;;;5105907;28;19977;-59
2023/12/24 12:06:43;;;;;;;;;;;9.60;90.90;;;;;;5109361;28;19959;-58
2023/12/24 12:09:19;;;;;;;;;;;9.60;90.90;;;;;;5105732;28;20012;-58
2023/12/24 12:11:52;;;;;;;;;;;9.60;90.90;;;;;;5106737;28;19970;-59
2023/12/24 12:14:19;;;;;;;;;;;9.60;90.90;;;;;;5107981;27;19935;-59
2023/12/24 12:16:52;;;;;;;;;;;9.60;90.90;;;;;;5087863;28;20387;-59
2023/12/24 12:19:26;;;;;;;;;;;9.60;90.90;;;;;;5109296;27;19924;-59
2023/12/24 12:21:58;;;;;;;;;;;9.60;90.90;;;;;;5108852;28;19946;-59
2023/12/24 12:24:34;;;;;;;;;;;9.60;90.90;;;;;;5105833;28;20000;-59
2023/12/24 12:27:06;;;;;;;;;;;9.60;90.80;;;;;;5106906;28;19975;-58
2023/12/24 12:29:39;;;;;;;;;;;9.60;90.80;;;;;;5109567;28;20283;-61
2023/12/24 12:32:12;;;;;;;;;;;9.60;90.80;;;;;;5114078;28;19924;-57
2023/12/24 12:34:45;;;;;;;;;;;9.60;90.80;;;;;;5111614;28;19973;-58
2023/12/24 12:37:18;;;;;;;;;;;9.70;90.80;;;;;;5111327;28;20154;-58
2023/12/24 12:39:53;;;;;;;;;;;9.60;90.70;;;;;;5109315;28;20011;-59
2023/12/24 12:42:28;;;;;;;;;;;9.70;90.70;;;;;;5111593;28;19928;-59
2023/12/24 12:45:02;;;;;;;;;;;9.70;90.70;;;;;;5098853;27;20362;-59
2023/12/24 12:47:35;;;;;;;;;;;9.70;90.70;;;;;;5090859;28;20347;-59
2023/12/24 12:50:09;;;;;;;;;;;9.70;90.70;;;;;;5091567;28;19935;-58
2023/12/24 12:52:42;;;;;;;;;;;9.70;90.60;;;;;;5111873;27;19924;-65
2023/12/24 12:55:12;;;;;;;;;;;9.70;90.50;;;;;;5111540;28;19931;-65
2023/12/24 12:57:46;;;;;;;;;;;9.70;90.50;;;;;;5112471;27;19931;-66
2023/12/24 13:00:19;;;;;;;;;;;9.70;90.40;;;;;;5092135;28;22989;-65
2023/12/24 13:02:53;;;;;;;;;;;9.70;90.40;;;;;;5092916;28;19924;-65
2023/12/24 13:05:27;;;;;;;;;;;9.70;90.40;;;;;;5090765;28;20307;-64
2023/12/24 13:08:01;;;;;;;;;;;9.70;90.30;;;;;;5088061;28;20405;-65
2023/12/24 13:10:37;;;;;;;;;;;9.70;90.20;;;;;;5090475;28;19935;-64
2023/12/24 13:13:11;;;;;;;;;;;9.70;90.20;;;;;;5089409;27;19928;-65
2023/12/24 13:15:45;;;;;;;;;;;9.80;90.00;;;;;;5089348;28;20373;-65
2023/12/24 13:18:26;;;;;;;;;;;9.80;89.90;;;;;;5091116;28;20034;-66
2023/12/24 13:21:02;;;;;;;;;;;9.80;89.80;;;;;;5089152;28;20032;-66
2023/12/24 13:23:34;;;;;;;;;;;9.80;89.80;;;;;;5090305;28;20298;-66
2023/12/24 13:26:09;;;;;;;;;;;9.80;89.80;;;;;;5088315;28;20007;-66
2023/12/24 13:28:44;;;;;;;;;;;9.80;89.70;;;;;;5088627;28;19928;-65
2023/12/24 13:31:23;;;;;;;;;;;9.80;89.70;;;;;;5087685;28;19925;-64
2023/12/24 13:33:56;;;;;;;;;;;9.80;89.60;;;;;;5086944;28;20340;-65
2023/12/24 13:36:29;;;;;;;;;;;9.90;89.60;;;;;;5090612;28;20022;-66
2023/12/24 13:39:02;;;;;;;;;;;9.90;89.60;;;;;;5087845;28;19928;-65
2023/12/24 13:41:37;;;;;;;;;;;9.80;89.50;;;;;;5090678;28;20007;-64
2023/12/24 13:44:11;;;;;;;;;;;9.90;89.40;;;;;;5089685;28;19973;-65
2023/12/24 13:46:43;;;;;;;;;;;9.90;89.40;;;;;;5089475;28;19924;-65
2023/12/24 13:49:17;;;;;;;;;;;9.80;89.40;;;;;;5089808;28;20015;-66
2023/12/24 13:51:44;;;;;;;;;;;9.90;89.40;;;;;;5087544;28;20088;-66
2023/12/24 13:54:16;;;;;;;;;;;9.90;89.30;;;;;;5090823;28;19967;-64
2023/12/24 13:56:52;;;;;;;;;;;9.90;89.40;;;;;;5089642;27;19928;-67
2023/12/24 13:59:25;;;;;;;;;;;9.90;89.20;;;;;;5090149;28;19951;-64
2023/12/24 14:01:58;;;;;;;;;;;9.90;89.30;;;;;;5083638;28;19950;-66
2023/12/24 14:04:31;;;;;;;;;;;9.90;89.20;;;;;;5088086;28;19924;-66
2023/12/24 14:07:04;;;;;;;;;;;9.90;89.20;;;;;;5089445;27;20021;-66
2023/12/24 14:09:39;;;;;;;;;;;9.90;89.40;;;;;;5087879;28;19928;-66
2023/12/24 14:12:14;;;;;;;;;;;9.90;89.50;;;;;;5108049;28;19930;-65
2023/12/24 14:14:47;;;;;;;;;;;9.90;89.60;;;;;;5085647;28;19946;-67
2023/12/24 14:17:20;;;;;;;;;;;9.90;89.70;;;;;;5089663;28;19928;-64
2023/12/24 14:19:53;;;;;;;;;;;9.90;89.70;;;;;;5087202;28;20367;-64
2023/12/24 14:22:27;;;;;;;;;;;9.80;89.70;;;;;;5089498;28;20018;-65
2023/12/24 14:25:00;;;;;;;;;;;9.90;89.70;;;;;;5089651;28;19999;-66
2023/12/24 14:27:34;;;;;;;;;;;9.90;89.70;;;;;;5087938;28;20438;-65
2023/12/24 14:30:10;;;;;;;;;;;9.90;89.80;;;;;;5088814;28;20782;-66
2023/12/24 14:32:42;;;;;;;;;;;9.90;89.90;;;;;;5086643;28;19924;-65
2023/12/24 14:35:16;;;;;;;;;;;9.90;90.10;;;;;;5107170;28;19999;-66
2023/12/24 14:37:48;;;;;;;;;;;9.90;90.20;;;;;;5088262;28;19931;-66
2023/12/24 14:40:22;;;;;;;;;;;9.80;90.30;;;;;;5088471;28;20012;-65
2023/12/24 14:42:56;;;;;;;;;;;9.80;90.40;;;;;;5102968;28;19928;-65
2023/12/24 14:45:29;;;;;;;;;;;9.80;90.50;;;;;;5106348;28;19931;-65
2023/12/24 14:48:03;;;;;;;;;;;9.90;90.60;;;;;;5092875;28;20289;-65
2023/12/24 14:50:36;;;;;;;;;;;9.90;90.70;;;;;;5106553;28;19924;-66
2023/12/24 14:53:09;;;;;;;;;;;9.80;90.80;;;;;;5110202;28;19930;-64
2023/12/24 14:55:43;;;;;;;;;;;9.80;90.80;;;;;;5107653;28;19925;-65
2023/12/24 14:58:17;;;;;;;;;;;9.80;90.90;;;;;;5106810;28;19932;-65
2023/12/24 15:00:51;;;;;;;;;;;9.80;91.00;;;;;;5108362;27;20426;-66
2023/12/24 15:03:24;;;;;;;;;;;9.80;91.10;;;;;;5108629;28;20283;-67
2023/12/24 15:05:57;;;;;;;;;;;9.80;91.10;;;;;;5116073;28;19958;-67
2023/12/24 15:08:30;;;;;;;;;;;9.70;91.20;;;;;;5110421;28;20010;-65
2023/12/24 15:11:04;;;;;;;;;;;9.80;91.20;;;;;;5107184;28;19924;-66